createdAt,value
2022-08-05T00:01:36.204Z,21.93
2022-08-05T00:04:18.496Z,21.90
2022-08-05T00:06:47.528Z,21.86
2022-08-05T00:09:20.558Z,21.83
2022-08-05T00:11:55.859Z,21.78
2022-08-05T00:14:31.374Z,21.74
2022-08-05T00:17:01.813Z,21.70
2022-08-05T00:19:33.616Z,21.65
2022-08-05T00:22:03.508Z,21.61
2022-08-05T00:24:33.100Z,21.57
2022-08-05T00:27:04.624Z,21.50
2022-08-05T00:29:39.041Z,21.44
2022-08-05T00:32:14.768Z,21.39
2022-08-05T00:35:04.002Z,21.33
2022-08-05T00:37:51.322Z,21.27
2022-08-05T00:40:26.850Z,21.20
2022-08-05T00:43:00.895Z,21.14
2022-08-05T00:45:42.898Z,21.09
2022-08-05T00:48:15.873Z,21.04
2022-08-05T00:50:48.525Z,20.99
2022-08-05T00:54:00.499Z,20.95
2022-08-05T00:56:10.273Z,20.90
2022-08-05T00:58:44.898Z,20.87
2022-08-05T01:01:42.098Z,20.83
2022-08-05T01:04:13.895Z,20.79
2022-08-05T01:06:43.836Z,20.76
2022-08-05T01:09:20.042Z,20.73
2022-08-05T01:11:51.846Z,20.71
2022-08-05T01:14:56.071Z,20.68
2022-08-05T01:17:57.682Z,20.63
2022-08-05T01:21:01.492Z,20.59
2022-08-05T01:23:45.386Z,20.55
2022-08-05T01:26:52.531Z,20.51
2022-08-05T01:29:33.150Z,20.46
2022-08-05T01:32:12.551Z,20.41
2022-08-05T01:35:02.918Z,20.36
2022-08-05T01:37:54.699Z,20.33
2022-08-05T01:40:29.595Z,20.27
2022-08-05T01:43:01.063Z,20.23
2022-08-05T01:45:34.949Z,20.19
2022-08-05T01:48:12.579Z,20.15
2022-08-05T01:50:50.865Z,20.12
2022-08-05T01:53:57.545Z,20.08
2022-08-05T01:56:14.096Z,20.04
2022-08-05T01:59:06.709Z,19.99
2022-08-05T02:01:39.967Z,19.94
2022-08-05T02:04:12.032Z,19.91
2022-08-05T02:06:40.809Z,19.86
2022-08-05T02:09:14.744Z,19.83
2022-08-05T02:12:22.495Z,19.79
2022-08-05T02:15:15.595Z,19.76
2022-08-05T02:18:31.263Z,19.71
2022-08-05T02:20:48.877Z,19.68
2022-08-05T02:23:23.281Z,19.64
2022-08-05T02:25:53.613Z,19.60
2022-08-05T02:28:30.536Z,19.55
2022-08-05T02:31:17.245Z,19.50
2022-08-05T02:34:02.280Z,19.47
2022-08-05T02:36:32.638Z,19.46
2022-08-05T02:39:05.047Z,19.42
2022-08-05T02:41:57.480Z,19.40
2022-08-05T02:44:30.277Z,19.37
2022-08-05T02:47:01.068Z,19.35
2022-08-05T02:49:41.784Z,19.32
2022-08-05T02:52:29.797Z,19.30
2022-08-05T02:55:05.411Z,19.27
2022-08-05T02:58:19.991Z,19.24
2022-08-05T03:00:29.340Z,19.20
2022-08-05T03:02:59.280Z,19.16
2022-08-05T03:06:53.646Z,19.12
2022-08-05T03:08:26.986Z,19.06
2022-08-05T03:11:01.281Z,19.00
2022-08-05T03:13:51.683Z,18.95
2022-08-05T03:16:31.802Z,18.90
2022-08-05T03:19:04.288Z,18.87
2022-08-05T03:21:48.914Z,18.85
2022-08-05T03:24:29.563Z,18.82
2022-08-05T03:27:00.159Z,18.80
2022-08-05T03:29:45.634Z,18.79
2022-08-05T03:32:19.683Z,18.78
2022-08-05T03:34:50.531Z,18.78
2022-08-05T03:37:21.425Z,18.76
2022-08-05T03:40:01.896Z,18.75
2022-08-05T03:42:41.511Z,18.73
2022-08-05T03:45:23.274Z,18.69
2022-08-05T03:47:57.009Z,18.66
2022-08-05T03:50:43.206Z,18.65
2022-08-05T03:55:53.092Z,18.65
2022-08-05T03:56:35.210Z,18.65
2022-08-05T03:59:09.711Z,18.65
2022-08-05T04:01:45.226Z,18.66
2022-08-05T04:04:21.245Z,18.68
2022-08-05T04:06:51.763Z,18.69
2022-08-05T04:09:25.980Z,18.71
2022-08-05T04:11:57.137Z,18.74
2022-08-05T04:14:29.733Z,18.75
2022-08-05T04:17:00.646Z,18.77
2022-08-05T04:19:30.086Z,18.80
2022-08-05T04:22:10.401Z,18.83
2022-08-05T04:24:43.869Z,18.85
2022-08-05T04:27:13.958Z,18.90
2022-08-05T04:29:43.910Z,18.94
2022-08-05T04:32:14.014Z,18.97
2022-08-05T04:34:48.539Z,19.03
2022-08-05T04:37:17.056Z,19.09
2022-08-05T04:39:45.658Z,19.15
2022-08-05T04:42:25.356Z,19.22
2022-08-05T04:44:54.185Z,19.28
2022-08-05T04:47:23.033Z,19.33
2022-08-05T04:50:02.569Z,19.40
2022-08-05T04:52:39.612Z,19.48
2022-08-05T04:55:14.605Z,19.67
2022-08-05T04:57:47.887Z,19.91
2022-08-05T05:00:23.674Z,20.13
2022-08-05T05:02:52.556Z,20.31
2022-08-05T05:05:28.654Z,20.42
2022-08-05T05:08:14.456Z,20.48
2022-08-05T05:10:56.685Z,20.55
2022-08-05T05:13:25.400Z,20.61
2022-08-05T05:15:56.522Z,20.68
2022-08-05T05:18:31.375Z,20.75
2022-08-05T05:21:03.759Z,20.84
2022-08-05T05:24:02.044Z,20.94
2022-08-05T05:26:28.434Z,21.04
2022-08-05T05:29:02.367Z,21.14
2022-08-05T05:34:02.516Z,21.34
2022-08-05T05:36:32.020Z,21.42
2022-08-05T05:39:00.576Z,21.50
2022-08-05T05:41:40.874Z,21.59
2022-08-05T05:44:35.921Z,21.68
2022-08-05T05:47:04.605Z,21.78
2022-08-05T05:49:41.994Z,21.87
2022-08-05T05:52:13.067Z,21.97
2022-08-05T05:55:01.325Z,22.09
2022-08-05T05:57:42.794Z,22.19
2022-08-05T06:00:21.939Z,22.29
2022-08-05T06:03:28.272Z,22.38
2022-08-05T06:05:55.573Z,22.49
2022-08-05T06:08:31.498Z,22.61
2022-08-05T06:11:01.835Z,22.71
2022-08-05T06:13:30.441Z,22.81
2022-08-05T06:16:29.543Z,22.93
2022-08-05T06:18:59.957Z,23.04
2022-08-05T06:21:36.881Z,23.16
2022-08-05T06:24:11.852Z,23.29
2022-08-05T06:26:51.286Z,23.41
2022-08-05T06:29:25.161Z,23.53
2022-08-05T06:32:21.430Z,23.66
2022-08-05T06:34:58.727Z,23.78
2022-08-05T06:37:58.354Z,23.91
2022-08-05T06:40:18.118Z,24.05
2022-08-05T06:42:52.335Z,24.16
2022-08-05T06:45:43.984Z,24.26
2022-08-05T06:48:36.216Z,24.38
2022-08-05T06:51:00.230Z,24.51
2022-08-05T06:53:29.375Z,24.61
2022-08-05T06:55:59.606Z,24.70
2022-08-05T06:58:29.723Z,24.76
2022-08-05T07:01:06.796Z,24.84
2022-08-05T07:03:35.628Z,24.93
2022-08-05T07:06:06.086Z,25.02
2022-08-05T07:08:47.628Z,25.13
2022-08-05T07:11:22.675Z,25.26
2022-08-05T07:14:20.236Z,25.38
2022-08-05T07:18:08.484Z,25.54
2022-08-05T07:22:30.085Z,25.85
2022-08-05T07:25:22.459Z,26.13
2022-08-05T07:27:58.585Z,26.49
2022-08-05T07:30:38.922Z,26.81
2022-08-05T07:33:16.135Z,27.10
2022-08-05T07:36:01.557Z,27.38
2022-08-05T07:38:43.421Z,27.65
2022-08-05T07:42:13.563Z,27.83
2022-08-05T07:44:19.255Z,27.92
2022-08-05T07:46:50.305Z,28.01
2022-08-05T07:49:19.929Z,28.10
2022-08-05T07:51:54.861Z,28.15
2022-08-05T07:54:31.042Z,28.20
2022-08-05T07:57:23.680Z,28.27
2022-08-05T07:59:53.632Z,28.36
2022-08-05T08:02:31.233Z,28.43
2022-08-05T08:05:16.603Z,28.53
2022-08-05T08:07:59.678Z,28.64
2022-08-05T08:10:30.302Z,28.76
2022-08-05T08:12:59.203Z,28.85
2022-08-05T08:16:35.877Z,28.98
2022-08-05T08:18:20.966Z,29.11
2022-08-05T08:21:01.907Z,29.23
2022-08-05T08:24:01.968Z,29.38
2022-08-05T08:26:26.954Z,29.53
2022-08-05T08:29:09.727Z,29.65
2022-08-05T08:31:50.455Z,29.80
2022-08-05T08:34:30.268Z,29.92
2022-08-05T08:37:04.670Z,30.06
2022-08-05T08:39:37.331Z,30.19
2022-08-05T08:42:41.961Z,30.31
2022-08-05T08:45:24.776Z,30.43
2022-08-05T08:48:11.777Z,30.53
2022-08-05T08:51:22.319Z,30.66
2022-08-05T08:53:40.330Z,30.81
2022-08-05T08:56:14.340Z,30.95
2022-08-05T08:58:47.894Z,31.09
2022-08-05T09:01:19.703Z,31.27
2022-08-05T09:03:57.348Z,31.57
2022-08-05T09:06:29.899Z,31.87
2022-08-05T09:09:01.846Z,32.06
2022-08-05T09:11:51.071Z,32.27
2022-08-05T09:14:58.425Z,32.50
2022-08-05T09:17:42.256Z,32.62
2022-08-05T09:20:05.867Z,32.74
2022-08-05T09:23:07.612Z,32.83
2022-08-05T09:26:00.353Z,32.98
2022-08-05T09:28:31.841Z,33.15
2022-08-05T09:31:23.394Z,33.30
2022-08-05T09:34:01.458Z,33.45
2022-08-05T09:36:59.441Z,33.60
2022-08-05T09:39:45.536Z,33.80
2022-08-05T09:42:24.017Z,34.04
2022-08-05T09:45:17.656Z,34.28
2022-08-05T09:47:55.184Z,34.52
2022-08-05T09:50:38.435Z,34.72
2022-08-05T09:53:22.713Z,34.94
2022-08-05T09:56:04.002Z,35.09
2022-08-05T09:58:41.975Z,35.25
2022-08-05T10:01:15.687Z,35.45
2022-08-05T10:04:16.022Z,35.64
2022-08-05T10:06:59.528Z,35.79
2022-08-05T10:09:29.855Z,35.86
2022-08-05T10:12:30.562Z,35.98
2022-08-05T10:15:22.597Z,36.20
2022-08-05T10:18:13.031Z,36.37
2022-08-05T10:20:48.836Z,36.41
2022-08-05T10:23:55.971Z,36.60
2022-08-05T10:26:13.875Z,36.98
2022-08-05T10:28:46.512Z,37.30
2022-08-05T10:32:51.790Z,37.58
2022-08-05T10:34:08.884Z,37.96
2022-08-05T10:36:41.893Z,38.34
2022-08-05T10:39:59.130Z,38.72
2022-08-05T10:42:33.934Z,39.15
2022-08-05T10:45:21.530Z,39.47
2022-08-05T10:47:56.705Z,39.78
2022-08-05T10:51:21.913Z,40.00
2022-08-05T10:53:51.396Z,40.31
2022-08-05T10:56:25.981Z,40.51
2022-08-05T10:58:55.092Z,40.77
2022-08-05T11:01:54.082Z,40.91
2022-08-05T11:04:28.190Z,40.93
2022-08-05T11:07:04.789Z,40.70
2022-08-05T11:09:51.536Z,40.55
2022-08-05T11:12:42.332Z,40.34
2022-08-05T11:15:24.153Z,40.18
2022-08-05T11:18:24.746Z,40.03
2022-08-05T11:20:54.936Z,40.25
2022-08-05T11:24:02.691Z,40.70
2022-08-05T11:26:28.526Z,41.07
2022-08-05T11:29:13.871Z,41.43
2022-08-05T11:31:58.537Z,41.78
2022-08-05T11:34:51.393Z,42.10
2022-08-05T11:38:29.053Z,42.58
2022-08-05T11:41:35.639Z,43.11
2022-08-05T11:44:40.230Z,43.41
2022-08-05T11:47:10.512Z,43.76
2022-08-05T11:49:51.035Z,44.07
2022-08-05T11:52:29.744Z,44.41
2022-08-05T11:55:07.534Z,44.58
2022-08-05T11:58:09.352Z,43.93
2022-08-05T12:00:38.472Z,43.29
2022-08-05T12:03:29.349Z,42.81
2022-08-05T12:06:06.556Z,42.53
2022-08-05T12:08:51.254Z,42.26
2022-08-05T12:11:40.418Z,42.14
2022-08-05T12:14:10.585Z,42.59
2022-08-05T12:16:45.201Z,43.07
2022-08-05T12:20:17.159Z,43.45
2022-08-05T12:22:09.393Z,43.76
2022-08-05T12:24:50.497Z,44.01
2022-08-05T12:27:32.761Z,44.29
2022-08-05T12:30:10.579Z,44.44
2022-08-05T12:32:53.848Z,44.68
2022-08-05T12:35:37.246Z,45.02
2022-08-05T12:38:10.908Z,45.32
2022-08-05T12:40:40.091Z,45.54
2022-08-05T12:43:12.863Z,45.62
2022-08-05T12:45:55.560Z,45.07
2022-08-05T12:48:32.372Z,44.43
2022-08-05T12:51:21.706Z,43.92
2022-08-05T12:54:05.106Z,43.49
2022-08-05T12:56:53.822Z,43.23
2022-08-05T12:59:46.427Z,43.12
2022-08-05T13:02:17.081Z,43.02
2022-08-05T13:04:54.383Z,42.73
2022-08-05T13:07:56.194Z,42.91
2022-08-05T13:10:20.194Z,43.61
2022-08-05T13:12:51.077Z,44.24
2022-08-05T13:15:41.373Z,44.92
2022-08-05T13:18:20.518Z,45.62
2022-08-05T13:20:49.976Z,46.14
2022-08-05T13:23:22.705Z,46.73
2022-08-05T13:25:59.682Z,47.17
2022-08-05T13:28:32.345Z,47.52
2022-08-05T13:31:03.291Z,47.94
2022-08-05T13:34:24.373Z,48.46
2022-08-05T13:36:30.988Z,48.83
2022-08-05T13:38:59.794Z,49.23
2022-08-05T13:41:35.924Z,49.58
2022-08-05T13:44:08.022Z,49.72
2022-08-05T13:47:01.715Z,49.80
2022-08-05T13:49:27.171Z,49.57
2022-08-05T13:51:56.432Z,48.48
2022-08-05T13:54:26.544Z,47.61
2022-08-05T13:56:55.325Z,46.88
2022-08-05T14:11:20.646Z,46.76
2022-08-05T14:13:55.037Z,47.48
2022-08-05T14:16:26.368Z,48.13
2022-08-05T14:18:54.978Z,48.68
2022-08-05T14:22:06.864Z,49.24
2022-08-05T14:24:13.698Z,49.81
2022-08-05T14:27:08.376Z,50.21
2022-08-05T14:29:36.584Z,50.83
2022-08-05T14:32:27.277Z,51.46
2022-08-05T14:34:54.663Z,51.81
2022-08-05T14:37:45.623Z,50.81
2022-08-05T14:40:16.913Z,49.59
2022-08-05T14:42:45.636Z,48.71
2022-08-05T14:45:14.154Z,48.12
2022-08-05T14:48:05.368Z,47.76
2022-08-05T14:50:32.661Z,47.47
2022-08-05T14:53:01.519Z,47.40
2022-08-05T14:55:39.297Z,48.13
2022-08-05T14:58:11.646Z,49.10
2022-08-05T15:00:59.739Z,50.08
2022-08-05T15:03:33.968Z,51.19
2022-08-05T15:06:14.987Z,52.18
2022-08-05T15:08:59.233Z,52.85
2022-08-05T15:11:51.809Z,53.52
2022-08-05T15:14:34.768Z,54.04
2022-08-05T15:17:44.614Z,54.51
2022-08-05T15:19:58.380Z,54.95
2022-08-05T15:22:28.199Z,54.60
2022-08-05T15:24:59.196Z,53.07
2022-08-05T15:27:32.059Z,51.83
2022-08-05T15:30:00.975Z,50.99
2022-08-05T15:32:29.682Z,50.28
2022-08-05T15:35:10.370Z,49.72
2022-08-05T15:38:32.741Z,49.25
2022-08-05T15:41:21.360Z,49.23
2022-08-05T15:43:45.404Z,50.33
2022-08-05T15:46:15.760Z,51.58
2022-08-05T15:48:51.998Z,52.69
2022-08-05T15:52:12.459Z,53.65
2022-08-05T15:54:16.894Z,54.55
2022-08-05T15:56:45.491Z,55.24
2022-08-05T15:59:20.028Z,55.88
2022-08-05T16:01:53.284Z,56.47
2022-08-05T16:04:25.598Z,57.01
2022-08-05T16:06:55.520Z,57.63
2022-08-05T16:09:25.397Z,57.29
2022-08-05T16:11:54.464Z,55.29
2022-08-05T16:14:23.875Z,53.71
2022-08-05T16:16:54.603Z,52.43
2022-08-05T16:20:03.621Z,51.31
2022-08-05T16:22:13.332Z,50.31
2022-08-05T16:24:51.829Z,49.65
2022-08-05T16:27:46.802Z,49.32
2022-08-05T16:30:25.787Z,50.31
2022-08-05T16:32:55.487Z,51.48
2022-08-05T16:35:28.651Z,52.42
2022-08-05T16:38:18.678Z,53.24
2022-08-05T16:40:55.145Z,52.80
2022-08-05T16:43:35.052Z,52.79
2022-08-05T16:46:13.102Z,52.56
2022-08-05T16:48:53.306Z,53.05
2022-08-05T16:51:42.581Z,53.66
2022-08-05T16:54:26.159Z,54.11
2022-08-05T16:56:56.047Z,54.29
2022-08-05T16:59:24.825Z,52.47
2022-08-05T17:01:57.113Z,50.45
2022-08-05T17:04:28.241Z,48.92
2022-08-05T17:07:03.349Z,47.73
2022-08-05T17:09:58.290Z,46.67
2022-08-05T17:12:50.583Z,45.81
2022-08-05T17:15:19.574Z,45.62
2022-08-05T17:17:55.427Z,46.13
2022-08-05T17:20:25.088Z,46.66
2022-08-05T17:22:58.975Z,47.19
2022-08-05T17:25:39.377Z,47.59
2022-08-05T17:28:10.028Z,47.87
2022-08-05T17:30:42.754Z,48.04
2022-08-05T17:33:21.629Z,47.43
2022-08-05T17:36:08.944Z,46.43
2022-08-05T17:38:39.947Z,45.52
2022-08-05T17:41:22.958Z,44.75
2022-08-05T17:43:58.577Z,43.93
2022-08-05T17:46:30.562Z,43.09
2022-08-05T17:49:00.057Z,41.25
2022-08-05T17:51:30.091Z,39.48
2022-08-05T17:54:09.360Z,38.06
2022-08-05T17:56:38.430Z,37.01
2022-08-05T17:59:06.981Z,36.17
2022-08-05T18:01:49.249Z,35.50
2022-08-05T18:04:21.471Z,35.19
2022-08-05T18:07:00.306Z,35.01
2022-08-05T18:10:00.032Z,34.80
2022-08-05T18:12:22.354Z,34.54
2022-08-05T18:14:52.941Z,34.33
2022-08-05T18:17:59.024Z,34.16
2022-08-05T18:20:14.100Z,33.98
2022-08-05T18:22:53.783Z,33.81
2022-08-05T18:25:25.211Z,33.62
2022-08-05T18:28:05.221Z,33.42
2022-08-05T18:30:34.922Z,33.24
2022-08-05T18:33:03.675Z,33.07
2022-08-05T18:36:01.371Z,32.90
2022-08-05T18:38:26.468Z,32.62
2022-08-05T18:41:55.476Z,32.21
2022-08-05T18:43:49.139Z,31.97
2022-08-05T18:46:19.788Z,31.80
2022-08-05T18:48:53.912Z,31.66
2022-08-05T18:52:06.301Z,31.42
2022-08-05T18:54:31.939Z,31.18
2022-08-05T18:57:02.684Z,31.05
2022-08-05T18:59:43.586Z,30.93
2022-08-05T19:02:26.681Z,30.76
2022-08-05T19:05:02.885Z,30.55
2022-08-05T19:07:50.269Z,30.40
2022-08-05T19:10:26.600Z,30.31
2022-08-05T19:12:57.615Z,30.24
2022-08-05T19:15:57.845Z,30.16
2022-08-05T19:18:20.811Z,30.07
2022-08-05T19:20:52.896Z,29.97
2022-08-05T19:24:03.502Z,29.88
2022-08-05T19:26:11.955Z,29.77
2022-08-05T19:28:44.597Z,29.67
2022-08-05T19:31:17.781Z,29.57
2022-08-05T19:33:56.249Z,29.50
2022-08-05T19:36:26.511Z,29.49
2022-08-05T19:39:01.171Z,29.46
2022-08-05T19:41:58.293Z,29.42
2022-08-05T19:44:20.249Z,29.38
2022-08-05T19:46:50.161Z,29.33
2022-08-05T19:49:19.078Z,29.29
2022-08-05T19:52:09.079Z,29.24
2022-08-05T19:54:36.873Z,29.11
2022-08-05T19:57:09.865Z,29.01
2022-08-05T19:59:54.663Z,28.92
2022-08-05T20:02:31.436Z,28.85
2022-08-05T20:05:00.435Z,28.81
2022-08-05T20:07:46.346Z,28.78
2022-08-05T20:10:22.352Z,28.78
2022-08-05T20:12:54.964Z,28.80
2022-08-05T20:15:51.779Z,28.85
2022-08-05T20:18:33.821Z,28.87
2022-08-05T20:21:01.378Z,28.90
2022-08-05T20:23:40.033Z,28.86
2022-08-05T20:26:24.723Z,28.80
2022-08-05T20:28:57.594Z,28.75
2022-08-05T20:31:42.063Z,28.66
2022-08-05T20:34:18.614Z,28.55
2022-08-05T20:36:48.760Z,28.45
2022-08-05T20:39:18.779Z,28.35
2022-08-05T20:41:48.173Z,28.24
2022-08-05T20:44:29.401Z,28.15
2022-08-05T20:47:03.503Z,28.10
2022-08-05T20:49:33.223Z,28.01
2022-08-05T20:52:10.599Z,27.92
2022-08-05T20:54:55.266Z,27.86
2022-08-05T20:57:43.408Z,27.76
2022-08-05T21:00:41.232Z,27.62
2022-08-05T21:03:07.918Z,27.50
2022-08-05T21:05:54.783Z,27.40
2022-08-05T21:08:28.217Z,27.29
2022-08-05T21:11:12.978Z,27.26
2022-08-05T21:14:01.468Z,27.28
2022-08-05T21:16:30.849Z,27.27
2022-08-05T21:19:01.605Z,27.25
2022-08-05T21:21:39.896Z,27.23
2022-08-05T21:24:19.350Z,27.17
2022-08-05T21:26:58.037Z,27.06
2022-08-05T21:29:32.142Z,26.98
2022-08-05T21:32:03.004Z,26.92
2022-08-05T21:34:33.142Z,26.85
2022-08-05T21:37:05.218Z,26.78
2022-08-05T21:39:40.263Z,26.70
2022-08-05T21:42:43.938Z,26.62
2022-08-05T21:44:59.759Z,26.54
2022-08-05T21:47:55.029Z,26.46
2022-08-05T21:50:17.769Z,26.38
2022-08-05T21:52:47.338Z,26.31
2022-08-05T21:55:18.143Z,26.25
2022-08-05T21:58:06.886Z,26.18
2022-08-05T22:00:40.144Z,26.12
2022-08-05T22:03:15.264Z,26.08
2022-08-05T22:05:48.932Z,26.04
2022-08-05T22:08:22.141Z,26.00
2022-08-05T22:10:53.529Z,25.97
2022-08-05T22:14:32.384Z,25.94
2022-08-05T22:16:26.059Z,25.90
2022-08-05T22:18:59.031Z,25.86
2022-08-05T22:21:27.675Z,25.85
2022-08-05T22:24:40.344Z,25.83
2022-08-05T22:27:23.106Z,25.80
2022-08-05T22:29:54.271Z,25.81
2022-08-05T22:32:23.166Z,25.89
2022-08-05T22:34:52.622Z,25.96
2022-08-05T22:37:22.396Z,26.02
2022-08-05T22:39:51.084Z,26.02
2022-08-05T22:42:26.218Z,26.00
2022-08-05T22:44:57.034Z,25.98
2022-08-05T22:47:28.897Z,25.90
2022-08-05T22:50:20.329Z,25.81
2022-08-05T22:52:52.690Z,25.71
2022-08-05T22:55:23.697Z,25.64
2022-08-05T22:57:53.746Z,25.55
2022-08-05T23:00:24.100Z,25.44
2022-08-05T23:02:56.340Z,25.35
2022-08-05T23:05:27.023Z,25.28
2022-08-05T23:07:55.637Z,25.20
2022-08-05T23:10:24.498Z,25.13
2022-08-05T23:12:55.586Z,25.05
2022-08-05T23:15:29.420Z,24.98
2022-08-05T23:18:06.205Z,24.91
2022-08-05T23:20:40.504Z,24.84
2022-08-05T23:23:11.932Z,24.77
2022-08-05T23:25:52.100Z,24.71
2022-08-05T23:28:29.070Z,24.64
2022-08-05T23:31:15.942Z,24.59
2022-08-05T23:34:04.226Z,24.53
2022-08-05T23:36:38.575Z,24.49
2022-08-05T23:39:09.210Z,24.44
2022-08-05T23:41:41.009Z,24.41
2022-08-05T23:44:17.032Z,24.36
2022-08-05T23:46:48.693Z,24.31
2022-08-05T23:49:23.663Z,24.26
2022-08-05T23:52:12.785Z,24.22
2022-08-05T23:54:47.939Z,24.20
2022-08-05T23:57:16.736Z,24.18
